Time;durP1;ratioP1;P1;durP2;ratioP2;P2;SDS_P1;SDS_P2;PMS_P1;PMS_P2;Temp;Humidity;BMP_temperature;BMP_pressure;BME280_temperature;BME280_humidity;BME280_pressure;Samples;Min_cycle;Max_cycle;Signal;HPM_P1;HPM_P2
2023/10/09 00:01:17;;;;;;;28.40;11.48;;;;;;;16.63;100.00;101086.81;8354888;28;20033;-61
2023/10/09 00:05:23;;;;;;;28.00;12.05;;;;;;;16.57;100.00;101079.28;8356603;28;20045;-58
2023/10/09 00:13:37;;;;;;;25.67;11.52;;;;;;;16.55;100.00;101075.84;8352494;27;20422;-60
2023/10/09 00:17:38;;;;;;;22.92;11.15;;;;;;;16.55;100.00;101084.91;8347353;28;20041;-58
2023/10/09 00:21:40;;;;;;;23.27;11.00;;;;;;;16.47;100.00;101076.66;8347990;28;20061;-58
2023/10/09 00:26:05;;;;;;;24.10;11.15;;;;;;;16.28;100.00;101076.06;8339573;28;20037;-59
2023/10/09 00:30:08;;;;;;;27.35;11.70;;;;;;;16.20;100.00;101074.16;8357116;28;20037;-60
2023/10/09 00:34:15;;;;;;;21.88;10.45;;;;;;;16.14;100.00;101079.41;8348172;28;20516;-60
2023/10/09 00:38:23;;;;;;;24.08;10.00;;;;;;;16.10;100.00;101064.38;8347762;28;20045;-60
2023/10/09 00:42:36;;;;;;;19.27;9.43;;;;;;;16.09;100.00;101059.91;8373969;28;20044;-59
2023/10/09 00:46:42;;;;;;;21.55;9.93;;;;;;;16.17;100.00;101051.78;8379483;28;20128;-62
2023/10/09 00:50:52;;;;;;;23.75;9.60;;;;;;;16.20;100.00;101051.47;8372113;28;20049;-61
2023/10/09 00:54:53;;;;;;;22.02;9.30;;;;;;;16.18;100.00;101054.34;8379728;28;20045;-60
2023/10/09 00:58:59;;;;;;;22.00;9.52;;;;;;;15.98;100.00;101052.03;8379140;28;20044;-60
2023/10/09 01:03:33;;;;;;;23.05;9.25;;;;;;;15.84;100.00;101045.31;8379737;28;20059;-61
2023/10/09 01:07:25;;;;;;;19.70;10.18;;;;;;;15.78;100.00;101040.50;8378801;28;20032;-61
2023/10/09 01:11:30;;;;;;;27.25;9.48;;;;;;;15.90;100.00;101038.34;8379414;28;20045;-61
2023/10/09 01:15:44;;;;;;;19.88;8.90;;;;;;;15.90;100.00;101030.16;8376210;28;20415;-62
2023/10/09 01:19:45;;;;;;;;;;;;;;;15.85;100.00;101030.66;8378208;28;20033;-61
2023/10/09 01:24:19;;;;;;;21.20;8.93;;;;;;;15.88;100.00;101016.69;8363810;28;19931;-61
2023/10/09 01:28:06;;;;;;;19.83;9.52;;;;;;;15.98;100.00;101030.22;8354169;28;20517;-61
2023/10/09 01:32:09;;;;;;;24.55;9.68;;;;;;;16.04;100.00;101030.41;8357198;28;20650;-61
2023/10/09 01:36:14;;;;;;;19.90;9.02;;;;;;;16.02;100.00;101016.09;8355151;28;20119;-61
2023/10/09 01:40:25;;;;;;;17.73;8.23;;;;;;;15.91;100.00;101002.72;8356685;28;20025;-61
2023/10/09 01:44:34;;;;;;;18.38;8.85;;;;;;;16.08;100.00;100998.22;8354133;28;20069;-61
2023/10/09 01:48:39;;;;;;;20.38;8.90;;;;;;;16.07;100.00;100991.06;8355528;28;20067;-61
2023/10/09 01:52:40;;;;;;;21.05;9.07;;;;;;;16.16;100.00;100990.06;8356285;28;20037;-61
2023/10/09 01:56:46;;;;;;;20.00;7.95;;;;;;;16.25;100.00;100981.72;8355276;28;20037;-58
2023/10/09 02:00:54;;;;;;;22.08;8.70;;;;;;;16.53;100.00;100998.75;8354276;28;20643;-60
2023/10/09 02:09:22;;;;;;;19.50;8.40;;;;;;;16.24;100.00;101003.72;8354053;28;20613;-60
2023/10/09 02:13:31;;;;;;;14.40;7.20;;;;;;;16.19;100.00;100996.03;8342046;28;20045;-59
2023/10/09 02:17:34;;;;;;;19.60;8.90;;;;;;;16.24;100.00;101001.00;8344438;28;20041;-60
2023/10/09 02:21:39;;;;;;;19.27;8.52;;;;;;;16.44;100.00;101005.19;8341030;28;20040;-60
2023/10/09 02:25:43;;;;;;;16.58;7.38;;;;;;;16.61;100.00;101005.06;8339097;28;20044;-60
2023/10/09 02:29:44;;;;;;;12.18;7.57;;;;;;;16.88;100.00;101004.78;8309884;28;20116;-60
2023/10/09 02:33:45;;;;;;;16.25;7.68;;;;;;;17.00;100.00;101008.88;8309465;28;20038;-60
2023/10/09 02:37:47;;;;;;;16.38;7.55;;;;;;;16.92;100.00;101011.59;8308626;28;20053;-61
2023/10/09 02:41:49;;;;;;;14.77;6.95;;;;;;;17.26;100.00;100997.78;8307854;28;20065;-60
2023/10/09 02:45:50;;;;;;;11.52;6.13;;;;;;;17.56;100.00;100994.34;8308137;28;20052;-61
2023/10/09 02:49:51;;;;;;;11.35;6.72;;;;;;;17.88;100.00;100991.53;8308651;28;20049;-61
2023/10/09 02:53:58;;;;;;;12.88;6.07;;;;;;;18.29;100.00;101001.28;8306555;28;20094;-61
2023/10/09 02:58:07;;;;;;;20.10;6.72;;;;;;;18.46;99.19;100994.75;8313311;28;20744;-60
2023/10/09 03:02:08;;;;;;;11.85;5.60;;;;;;;18.59;99.10;100994.13;8310371;28;20033;-61
2023/10/09 03:06:11;;;;;;;8.05;5.50;;;;;;;18.71;97.59;100987.22;8303708;28;20052;-60
2023/10/09 03:10:11;;;;;;;10.05;5.32;;;;;;;18.63;98.21;100985.38;8306006;28;20118;-65
2023/10/09 03:14:13;;;;;;;15.70;6.05;;;;;;;18.81;97.56;100993.28;8305656;28;20056;-63
2023/10/09 03:18:14;;;;;;;15.13;5.75;;;;;;;18.86;97.44;101005.44;8303678;28;20041;-64
2023/10/09 03:22:14;;;;;;;13.20;5.15;;;;;;;18.76;98.35;100991.09;8306512;28;20072;-63
2023/10/09 03:26:19;;;;;;;16.77;5.63;;;;;;;19.02;97.21;100990.75;8302252;28;20298;-64
2023/10/09 03:30:22;;;;;;;11.48;5.35;;;;;;;19.32;95.02;100993.44;8305068;28;20033;-65
2023/10/09 03:34:24;;;;;;;12.73;5.53;;;;;;;19.52;93.39;100991.84;8311167;28;20187;-64
2023/10/09 03:38:29;;;;;;;12.38;4.95;;;;;;;19.69;91.88;100994.44;8302532;28;20530;-64
2023/10/09 03:42:30;;;;;;;13.43;5.03;;;;;;;19.77;91.03;100980.63;8311691;28;20056;-65
2023/10/09 03:46:36;;;;;;;12.52;4.97;;;;;;;19.72;90.90;100977.59;8308477;28;20408;-64
2023/10/09 03:50:37;;;;;;;13.20;5.55;;;;;;;19.68;91.31;100981.75;8303256;28;20037;-61
2023/10/09 03:54:38;;;;;;;13.98;5.18;;;;;;;19.58;91.62;100982.06;8304790;28;20188;-61
2023/10/09 03:58:42;;;;;;;11.80;5.05;;;;;;;19.52;92.16;100981.94;8300959;28;20038;-61
2023/10/09 04:02:43;;;;;;;10.07;4.95;;;;;;;19.48;92.32;100984.19;8311684;28;20511;-60
2023/10/09 04:06:43;;;;;;;8.48;4.60;;;;;;;19.51;92.19;100981.06;8303860;28;21025;-61
2023/10/09 04:10:50;;;;;;;8.93;4.70;;;;;;;19.54;90.91;100974.38;8308714;28;20668;-61
2023/10/09 04:15:01;;;;;;;9.25;4.82;;;;;;;19.52;91.08;100984.69;8310362;28;20492;-61
2023/10/09 04:19:21;;;;;;;10.73;5.00;;;;;;;19.59;90.81;100974.66;8307510;28;20045;-60
2023/10/09 04:23:34;;;;;;;11.27;4.93;;;;;;;19.55;90.75;100970.59;8303596;28;20408;-59
2023/10/09 04:27:37;;;;;;;15.07;5.30;;;;;;;19.44;91.83;100974.63;8311432;28;20195;-60
2023/10/09 04:31:37;;;;;;;8.13;4.90;;;;;;;19.28;93.00;100975.63;8312815;28;20038;-59
2023/10/09 04:35:38;;;;;;;9.25;5.45;;;;;;;19.08;94.44;100968.94;8314083;28;20045;-58
2023/10/09 04:39:46;;;;;;;9.57;5.20;;;;;;;18.97;95.42;100966.63;8304420;28;20122;-60
2023/10/09 04:43:46;;;;;;;11.77;4.70;;;;;;;18.85;96.52;100962.59;8309216;28;20042;-59
2023/10/09 04:47:58;;;;;;;10.65;5.40;;;;;;;18.91;96.04;100972.00;8310893;28;20140;-59
2023/10/09 04:52:09;;;;;;;13.70;4.68;;;;;;;18.69;97.19;100951.78;8304282;28;20046;-59
2023/10/09 04:56:15;;;;;;;11.82;5.00;;;;;;;18.65;97.35;100944.97;8301416;28;20498;-59
2023/10/09 05:04:39;;;;;;;12.77;5.45;;;;;;;18.87;95.93;100968.75;8306491;28;20524;-59
2023/10/09 05:08:45;;;;;;;16.83;5.03;;;;;;;18.84;95.83;100966.41;8306637;28;20037;-59
2023/10/09 05:12:47;;;;;;;11.27;5.22;;;;;;;18.66;97.57;100967.75;8311100;28;20052;-58
2023/10/09 05:16:55;;;;;;;11.38;6.13;;;;;;;18.57;98.71;100964.19;8309056;28;20053;-58
2023/10/09 05:20:57;;;;;;;13.23;5.78;;;;;;;18.60;97.95;100957.50;8307607;28;20049;-60
2023/10/09 05:24:58;;;;;;;12.75;5.28;;;;;;;18.65;97.07;100960.53;8306919;28;20077;-60
2023/10/09 05:28:59;;;;;;;12.95;5.55;;;;;;;18.58;97.64;100938.53;8307389;28;20052;-63
2023/10/09 05:33:27;;;;;;;11.85;5.38;;;;;;;18.63;97.45;100941.53;8312960;28;20042;-63
2023/10/09 05:37:32;;;;;;;14.73;5.60;;;;;;;18.62;97.36;100956.28;8307335;28;20029;-64
2023/10/09 05:41:59;;;;;;;12.52;5.70;;;;;;;18.70;96.15;100942.50;8311779;28;20124;-58
2023/10/09 05:46:09;;;;;;;10.63;5.72;;;;;;;18.96;93.27;100937.53;8310719;28;20041;-58
2023/10/09 06:01:05;;;;;;;11.25;5.47;;;;;;;18.98;93.78;100962.88;8332922;28;20577;-60
2023/10/09 06:04:15;;;;;;;9.25;5.43;;;;;;;18.93;93.68;100951.59;8326757;28;20103;-60
2023/10/09 06:07:40;;;;;;;10.00;4.72;;;;;;;19.00;93.44;100938.84;8331435;28;20044;-60
2023/10/09 06:11:49;;;;;;;10.07;5.22;;;;;;;19.03;93.53;100952.19;8330468;28;20043;-60
2023/10/09 06:20:42;;;;;;;16.23;5.72;;;;;;;19.15;92.74;100952.59;8355575;27;20426;-61
2023/10/09 06:24:23;;;;;;;9.98;5.63;;;;;;;19.14;92.14;100978.31;8349095;28;20037;-60
2023/10/09 06:28:32;;;;;;;10.13;4.82;;;;;;;18.97;94.32;100987.72;8348110;28;20029;-60
2023/10/09 06:36:52;;;;;;;12.07;4.88;;;;;;;18.90;94.72;100982.09;8384489;27;20432;-60
2023/10/09 06:42:08;;;;;;;8.35;4.68;;;;;;;19.23;91.91;100983.53;8364639;28;20031;-63
2023/10/09 06:49:29;;;;;;;13.73;5.35;;;;;;;19.32;91.39;100987.97;8332925;27;20570;-60
2023/10/09 06:54:37;;;;;;;12.27;4.55;;;;;;;19.38;91.95;101000.94;8330736;28;20048;-60
2023/10/09 06:57:53;;;;;;;9.48;5.28;;;;;;;19.46;91.00;101010.97;8334284;28;20376;-60
2023/10/09 07:06:24;;;;;;;12.85;5.13;;;;;;;19.66;89.05;101038.69;8331640;27;20452;-59
2023/10/09 07:10:32;;;;;;;16.38;5.05;;;;;;;19.71;88.92;101030.78;8332801;28;20037;-60
2023/10/09 07:18:49;;;;;;;14.15;5.57;;;;;;;20.00;86.86;101047.28;8332022;27;20432;-60
2023/10/09 07:22:53;;;;;;;8.70;4.53;;;;;;;20.07;87.68;101048.22;8330412;28;20132;-60
2023/10/09 07:26:55;;;;;;;11.18;4.40;;;;;;;20.11;87.01;101044.06;8326134;28;20045;-60
2023/10/09 07:30:58;;;;;;;15.35;5.25;;;;;;;20.17;87.03;101051.56;8330871;28;20958;-60
2023/10/09 07:34:59;;;;;;;11.38;5.40;;;;;;;20.37;85.27;101055.47;8331725;28;20042;-60
2023/10/09 07:38:59;;;;;;;13.57;5.32;;;;;;;20.33;85.99;101054.13;8332708;28;20048;-60
2023/10/09 07:43:05;;;;;;;15.70;6.40;;;;;;;20.36;84.74;101048.25;8329420;28;20050;-60
2023/10/09 07:47:33;;;;;;;11.82;4.90;;;;;;;20.46;83.96;101054.31;8326727;28;20403;-60
2023/10/09 07:51:33;;;;;;;9.13;4.68;;;;;;;20.42;83.77;101064.81;8329294;28;20038;-60
2023/10/09 07:55:39;;;;;;;12.07;5.15;;;;;;;20.43;84.34;101060.19;8331192;28;20036;-60
2023/10/09 07:59:41;;;;;;;13.98;5.07;;;;;;;20.47;83.71;101072.50;8329687;28;20439;-60
2023/10/09 08:03:45;;;;;;;17.00;4.65;;;;;;;20.49;84.86;101076.75;8328596;28;20045;-60
2023/10/09 08:08:38;;;;;;;;;;;;;;;20.50;84.81;101061.13;8326537;28;20458;-60
2023/10/09 08:12:14;;;;;;;9.48;4.65;;;;;;;20.58;84.91;101069.25;8327955;28;19967;-60
2023/10/09 08:16:21;;;;;;;13.00;5.05;;;;;;;20.66;83.78;101077.38;8330252;28;20045;-60
2023/10/09 08:20:26;;;;;;;14.63;5.40;;;;;;;20.71;82.48;101070.25;8331365;28;20041;-60
2023/10/09 08:24:55;;;;;;;13.15;5.50;;;;;;;20.74;83.02;101066.28;8329324;28;20052;-60
2023/10/09 08:28:52;;;;;;;16.42;5.07;;;;;;;20.72;82.98;101057.38;8312512;28;20088;-60
2023/10/09 08:33:58;;;;;;;11.63;5.20;;;;;;;20.73;83.91;101070.06;8307135;28;20048;-60
2023/10/09 08:37:13;;;;;;;12.60;5.40;;;;;;;20.92;83.76;101055.72;8298401;28;20041;-60
2023/10/09 08:41:23;;;;;;;14.07;5.10;;;;;;;21.02;82.71;101056.28;8309416;28;20042;-60
2023/10/09 08:45:25;;;;;;;15.45;5.70;;;;;;;21.12;82.37;101034.81;8302340;28;20037;-60
2023/10/09 08:49:26;;;;;;;15.25;5.25;;;;;;;21.05;82.48;101064.16;8306965;28;20049;-60
2023/10/09 08:53:27;;;;;;;11.18;5.00;;;;;;;21.14;82.86;101054.72;8306484;28;20037;-60
2023/10/09 08:57:30;;;;;;;8.38;4.63;;;;;;;21.16;82.39;101061.72;8308458;28;20626;-60
2023/10/09 09:01:32;;;;;;;8.82;5.22;;;;;;;21.28;82.10;101070.31;8305654;28;20041;-59
2023/10/09 09:05:35;;;;;;;12.02;5.35;;;;;;;21.40;80.70;101088.00;8306580;28;20125;-59
2023/10/09 09:09:36;;;;;;;10.10;5.37;;;;;;;21.72;79.08;101065.44;8307554;28;20034;-60
2023/10/09 09:13:37;;;;;;;11.15;5.57;;;;;;;22.14;77.53;101064.50;8306792;28;20037;-61
2023/10/09 09:17:41;;;;;;;12.10;5.03;;;;;;;22.27;76.71;101026.00;8304657;28;20030;-60
2023/10/09 09:21:54;;;;;;;11.57;5.43;;;;;;;22.37;76.34;101007.19;8302631;28;20041;-59
2023/10/09 09:25:59;;;;;;;10.13;5.07;;;;;;;22.52;74.81;101025.31;8301887;28;20766;-59
2023/10/09 09:30:07;;;;;;;9.75;4.38;;;;;;;23.37;72.26;101016.44;8296573;28;20038;-60
2023/10/09 09:34:39;;;;;;;8.40;4.45;;;;;;;23.42;71.79;101020.25;8302362;28;20546;-60
2023/10/09 09:39:04;;;;;;;14.90;4.82;;;;;;;23.87;70.02;101016.63;8309171;28;20045;-60
2023/10/09 09:42:52;;;;;;;11.27;4.60;;;;;;;23.68;71.56;101011.13;8302137;28;20042;-60
2023/10/09 09:46:55;;;;;;;11.68;4.40;;;;;;;23.64;72.08;101004.34;8307618;28;20099;-60
2023/10/09 09:50:55;;;;;;;7.32;3.95;;;;;;;24.77;69.89;100997.25;8304745;28;20067;-60
2023/10/09 09:54:56;;;;;;;8.55;4.00;;;;;;;25.40;66.15;100993.44;8305623;28;20046;-60
2023/10/09 09:59:01;;;;;;;11.52;4.43;;;;;;;24.94;66.16;100995.66;8295187;28;20045;-60
2023/10/09 10:03:12;;;;;;;9.05;3.78;;;;;;;24.60;68.03;100991.34;8298053;28;20049;-60
2023/10/09 10:07:17;;;;;;;7.45;3.55;;;;;;;24.70;68.64;100990.91;8300780;28;20038;-61
2023/10/09 10:11:52;;;;;;;7.80;3.92;;;;;;;24.77;67.38;100988.97;8306076;28;20144;-63
2023/10/09 10:20:25;;;;;;;9.48;3.47;;;;;;;25.89;64.20;100976.78;8345512;27;20924;-59
2023/10/09 10:28:38;;;;;;;4.70;2.75;;;;;;;26.90;58.01;100952.09;8366517;28;20353;-59
2023/10/09 10:33:09;;;;;;;6.18;3.10;;;;;;;26.47;58.76;100953.09;8351958;28;20124;-60
2023/10/09 10:37:13;;;;;;;4.68;2.72;;;;;;;26.16;58.11;100953.28;8363852;28;20506;-59
2023/10/09 10:41:16;;;;;;;18.83;3.78;;;;;;;26.03;58.21;100950.66;8366521;28;20098;-63
2023/10/09 10:45:34;;;;;;;7.20;2.63;;;;;;;25.99;56.20;100952.22;8363373;28;20041;-63
2023/10/09 10:49:38;;;;;;;6.32;2.80;;;;;;;26.06;57.04;100966.84;8364080;28;20037;-63
2023/10/09 10:53:52;;;;;;;5.18;2.55;;;;;;;26.15;56.69;100965.44;8362753;28;20443;-63
2023/10/09 10:57:53;;;;;;;8.10;2.95;;;;;;;26.02;56.06;100971.16;8361884;28;20045;-64
2023/10/09 11:02:13;;;;;;;6.30;2.95;;;;;;;26.08;56.86;100972.16;8361558;28;20423;-63
2023/10/09 11:06:14;;;;;;;9.93;2.95;;;;;;;26.24;58.17;100977.94;8362695;28;20055;-63
2023/10/09 11:10:28;;;;;;;6.50;3.05;;;;;;;26.22;57.31;100976.44;8360973;28;20411;-64
2023/10/09 11:14:39;;;;;;;12.13;3.67;;;;;;;26.34;57.98;100981.00;8357065;28;20132;-64
2023/10/09 11:18:45;;;;;;;10.52;3.35;;;;;;;26.54;57.37;100989.94;8362012;28;20037;-64
2023/10/09 11:23:15;;;;;;;12.40;3.47;;;;;;;26.49;54.73;100998.09;8363886;28;20045;-63
2023/10/09 11:27:18;;;;;;;13.32;3.90;;;;;;;26.46;54.91;100989.38;8360598;28;20415;-63
2023/10/09 11:31:18;;;;;;;9.98;3.67;;;;;;;26.57;55.44;100981.13;8361757;28;20032;-64
2023/10/09 11:35:27;;;;;;;9.75;3.42;;;;;;;26.51;54.88;100976.53;8365270;28;20029;-63
2023/10/09 11:39:34;;;;;;;10.98;3.28;;;;;;;26.48;54.34;100982.53;8342544;28;20080;-63
2023/10/09 11:43:54;;;;;;;9.82;3.33;;;;;;;26.30;54.42;100978.91;8340033;28;20084;-60
2023/10/09 11:47:57;;;;;;;9.60;3.05;;;;;;;26.20;55.14;100987.75;8340251;28;20042;-59
2023/10/09 11:52:35;;;;;;;15.10;3.60;;;;;;;26.21;56.42;100974.75;8341563;28;20036;-59
2023/10/09 11:56:27;;;;;;;15.05;4.20;;;;;;;26.13;56.35;100973.13;8338175;28;20076;-62
2023/10/09 12:00:29;;;;;;;15.82;3.75;;;;;;;25.99;56.61;100976.28;8336296;28;20087;-59
2023/10/09 12:04:30;;;;;;;10.43;3.72;;;;;;;25.91;56.15;100974.63;8340331;28;20041;-59
2023/10/09 12:08:32;;;;;;;14.60;3.55;;;;;;;25.97;57.37;100962.63;8340638;28;20579;-60
2023/10/09 12:12:34;;;;;;;13.70;4.38;;;;;;;25.95;56.70;100963.94;8339078;28;20403;-61
2023/10/09 12:16:38;;;;;;;9.95;3.10;;;;;;;25.88;57.56;100968.69;8338274;28;20025;-61
2023/10/09 12:20:39;;;;;;;11.47;3.53;;;;;;;25.83;58.24;100963.84;8340912;28;20040;-61
2023/10/09 12:24:43;;;;;;;13.25;3.30;;;;;;;25.79;58.10;100959.84;8339873;28;20068;-61
2023/10/09 12:28:45;;;;;;;10.93;3.72;;;;;;;25.74;56.13;100967.97;8337418;28;20033;-61
2023/10/09 12:32:46;;;;;;;9.20;3.60;;;;;;;25.88;58.01;100974.22;8337786;28;20727;-61
2023/10/09 12:36:46;;;;;;;15.10;3.72;;;;;;;25.92;58.24;100981.88;8340829;28;20471;-61
2023/10/09 12:40:54;;;;;;;14.63;3.65;;;;;;;25.84;56.54;100968.31;8338158;28;20045;-62
2023/10/09 12:44:56;;;;;;;8.77;3.40;;;;;;;25.78;57.22;100965.59;8339500;28;20483;-61
2023/10/09 12:48:57;;;;;;;13.18;3.95;;;;;;;25.70;58.27;100952.91;8338380;28;20475;-61
2023/10/09 12:53:17;;;;;;;7.05;3.25;;;;;;;25.65;56.38;100958.28;8336125;28;20044;-62
2023/10/09 12:57:18;;;;;;;11.05;3.75;;;;;;;25.57;58.08;100958.56;8337005;28;20116;-61
2023/10/09 13:01:20;;;;;;;7.72;3.20;;;;;;;25.48;57.82;100968.25;8338629;28;20044;-62
2023/10/09 13:05:26;;;;;;;10.35;4.00;;;;;;;25.43;56.16;100962.53;8338393;28;20071;-60
2023/10/09 13:10:31;;;;;;;9.82;3.83;;;;;;;25.26;58.06;100964.13;8336890;28;20115;-59
2023/10/09 13:13:47;;;;;;;10.40;3.42;;;;;;;25.15;58.25;100964.84;8338748;28;20494;-65
2023/10/09 13:17:47;;;;;;;9.63;4.22;;;;;;;25.11;57.44;100954.44;8338713;28;20032;-65
2023/10/09 13:21:49;;;;;;;10.55;4.07;;;;;;;24.97;58.31;100954.56;8340371;28;20089;-64
2023/10/09 13:25:49;;;;;;;9.20;3.60;;;;;;;24.85;58.77;100955.47;8334481;28;20095;-62
2023/10/09 13:29:52;;;;;;;12.65;4.35;;;;;;;24.89;57.38;100956.75;8335467;28;20041;-63
2023/10/09 13:33:54;;;;;;;7.95;3.65;;;;;;;24.87;58.72;100958.88;8333227;28;20049;-65
2023/10/09 13:37:55;;;;;;;8.45;3.30;;;;;;;24.76;57.99;100960.44;8339041;28;20041;-64
2023/10/09 13:41:58;;;;;;;8.27;3.72;;;;;;;24.66;58.00;100956.44;8335191;28;20040;-65
2023/10/09 13:45:58;;;;;;;5.18;3.15;;;;;;;24.65;58.72;100961.16;8337695;28;20041;-61
2023/10/09 13:50:00;;;;;;;9.75;3.78;;;;;;;24.68;57.53;100965.38;8336317;28;20044;-61
2023/10/09 13:54:00;;;;;;;12.50;4.25;;;;;;;24.66;58.27;100953.69;8336514;28;20038;-61
2023/10/09 13:58:01;;;;;;;8.00;3.45;;;;;;;24.56;57.75;100967.13;8332363;28;20047;-61
2023/10/09 14:02:08;;;;;;;11.98;3.50;;;;;;;24.48;58.00;100959.06;8332991;28;20099;-61
2023/10/09 14:06:12;;;;;;;8.02;3.65;;;;;;;24.42;58.46;100965.47;8335661;28;20046;-65
2023/10/09 14:10:25;;;;;;;7.50;3.37;;;;;;;24.42;58.65;100966.34;8335705;28;20048;-65
2023/10/09 14:14:27;;;;;;;9.52;4.45;;;;;;;24.45;58.52;100959.50;8334413;28;20041;-65
2023/10/09 14:18:29;;;;;;;13.88;3.97;;;;;;;24.31;60.19;100952.34;8336252;28;20067;-65
2023/10/09 14:22:30;;;;;;;11.23;3.88;;;;;;;24.38;60.09;100959.56;8335375;28;20044;-65
2023/10/09 14:26:34;;;;;;;13.68;3.72;;;;;;;24.35;59.76;100961.91;8340298;28;20037;-63
2023/10/09 14:30:41;;;;;;;12.73;3.80;;;;;;;24.35;59.63;100970.19;8333797;28;20439;-65
2023/10/09 14:34:47;;;;;;;9.43;3.83;;;;;;;24.31;60.63;100968.94;8337286;28;20040;-65
2023/10/09 14:38:52;;;;;;;9.52;4.10;;;;;;;24.11;59.84;100973.66;8342637;28;20052;-65
2023/10/09 14:42:52;;;;;;;10.27;3.83;;;;;;;24.04;60.33;100982.00;8337910;28;20049;-64
2023/10/09 14:46:55;;;;;;;8.85;3.95;;;;;;;24.05;60.69;100980.06;8332253;28;20041;-60
2023/10/09 14:51:04;;;;;;;12.63;3.75;;;;;;;24.03;61.92;100976.69;8331185;28;20068;-60
2023/10/09 14:55:05;;;;;;;12.20;3.65;;;;;;;23.88;61.46;100985.16;8334950;28;20044;-62
2023/10/09 14:59:06;;;;;;;12.35;4.20;;;;;;;23.70;63.53;100989.69;8328246;28;20521;-61
2023/10/09 15:03:14;;;;;;;12.95;3.80;;;;;;;23.70;63.99;100981.41;8329507;28;20410;-61
2023/10/09 15:07:15;;;;;;;10.93;3.90;;;;;;;23.81;64.52;100989.00;8334649;28;20053;-62
2023/10/09 15:11:16;;;;;;;8.65;4.20;;;;;;;23.88;63.72;100984.34;8334640;28;20053;-61
2023/10/09 15:15:16;;;;;;;8.82;3.85;;;;;;;23.88;64.73;100973.28;8341091;28;22183;-61
2023/10/09 15:19:17;;;;;;;9.75;4.13;;;;;;;23.97;63.32;100977.56;8335087;28;20569;-62
2023/10/09 15:23:19;;;;;;;9.98;4.20;;;;;;;23.87;63.51;100960.53;8339556;28;20048;-61
2023/10/09 15:27:20;;;;;;;10.35;4.40;;;;;;;23.84;64.42;100985.81;8351515;28;20117;-61
2023/10/09 15:31:21;;;;;;;12.23;4.57;;;;;;;23.75;64.28;100984.38;8340067;28;20033;-62
2023/10/09 15:35:22;;;;;;;10.40;4.82;;;;;;;23.64;64.55;100979.50;8335955;28;20037;-64
2023/10/09 15:39:23;;;;;;;10.82;3.97;;;;;;;23.62;64.49;100982.47;8343360;28;20036;-65
2023/10/09 15:43:25;;;;;;;9.55;4.15;;;;;;;23.53;64.97;100969.06;8325000;28;20364;-60
2023/10/09 15:47:25;;;;;;;9.45;4.82;;;;;;;23.50;65.36;100972.25;8334908;28;20546;-61
2023/10/09 15:51:28;;;;;;;11.27;4.35;;;;;;;23.29;66.16;100966.97;8339215;28;20044;-61
2023/10/09 15:55:28;;;;;;;10.10;4.38;;;;;;;23.11;66.51;100971.19;8333838;28;20033;-60
2023/10/09 15:59:32;;;;;;;9.52;4.55;;;;;;;22.95;67.08;100959.69;8331990;28;20045;-58
2023/10/09 16:03:33;;;;;;;9.07;5.20;;;;;;;22.78;67.41;100969.44;8333629;28;20029;-59
2023/10/09 16:07:33;;;;;;;9.60;4.60;;;;;;;22.55;68.69;100975.31;8329984;28;20506;-61
2023/10/09 16:11:34;;;;;;;10.27;4.18;;;;;;;22.38;69.60;100973.91;8333606;28;20036;-61
2023/10/09 16:15:34;;;;;;;9.35;4.70;;;;;;;22.31;69.93;100986.81;8333642;28;20036;-61
2023/10/09 16:19:36;;;;;;;11.55;4.47;;;;;;;22.36;70.06;100989.81;8333824;28;20084;-61
2023/10/09 16:23:36;;;;;;;12.88;4.43;;;;;;;22.33;70.26;100987.47;8337593;28;20353;-61
2023/10/09 16:27:39;;;;;;;11.02;4.50;;;;;;;22.25;70.93;100982.13;8331558;28;20369;-60
2023/10/09 16:31:40;;;;;;;8.40;4.30;;;;;;;22.33;70.30;100987.47;8334456;28;20041;-58
2023/10/09 16:35:42;;;;;;;9.23;4.32;;;;;;;22.41;70.25;100992.78;8336132;28;20088;-61
2023/10/09 16:39:44;;;;;;;10.38;4.57;;;;;;;22.39;70.14;100997.69;8332212;28;20123;-61
2023/10/09 16:43:45;;;;;;;10.93;4.95;;;;;;;22.23;71.11;101002.69;8333954;28;20111;-61
2023/10/09 16:47:47;;;;;;;13.00;4.75;;;;;;;22.19;70.54;101018.75;8334775;28;20041;-61
2023/10/09 16:51:48;;;;;;;13.65;4.70;;;;;;;22.25;70.18;101017.94;8330792;28;20171;-61
2023/10/09 16:55:49;;;;;;;10.23;4.88;;;;;;;22.17;70.66;101026.38;8337945;28;20045;-59
2023/10/09 16:59:51;;;;;;;14.95;4.30;;;;;;;22.10;70.85;101031.00;8343107;28;20044;-59
2023/10/09 17:03:57;;;;;;;10.35;4.30;;;;;;;22.15;70.22;101034.00;8329508;28;20045;-60
2023/10/09 17:07:58;;;;;;;13.57;5.20;;;;;;;22.02;70.78;101033.91;8331618;28;20523;-63
2023/10/09 17:12:00;;;;;;;10.85;4.70;;;;;;;21.98;69.92;101032.63;8333319;28;20533;-63
2023/10/09 17:16:02;;;;;;;11.35;4.47;;;;;;;21.83;70.83;101031.88;8331106;28;20451;-64
2023/10/09 17:20:09;;;;;;;8.18;4.25;;;;;;;21.81;70.74;101030.38;8332312;28;20041;-63
2023/10/09 17:24:10;;;;;;;11.95;4.45;;;;;;;21.58;70.96;101038.84;8338009;28;20403;-64
2023/10/09 17:28:17;;;;;;;12.13;4.60;;;;;;;21.42;72.99;101036.38;8333815;28;20253;-60
2023/10/09 17:32:17;;;;;;;12.80;4.38;;;;;;;21.04;75.09;101037.69;8330974;28;20253;-61
2023/10/09 17:36:18;;;;;;;9.30;4.55;;;;;;;20.84;76.25;101042.97;8342593;28;20257;-61
2023/10/09 17:40:18;;;;;;;13.43;5.05;;;;;;;20.90;75.72;101041.31;8338524;28;20037;-61
2023/10/09 17:44:21;;;;;;;13.63;5.00;;;;;;;20.90;74.99;101049.56;8329464;28;20029;-61
2023/10/09 17:48:22;;;;;;;10.80;4.78;;;;;;;20.85;74.29;101052.03;8326143;28;20044;-61
2023/10/09 17:52:23;;;;;;;11.85;5.20;;;;;;;20.74;74.93;101060.81;8328681;28;20042;-61
2023/10/09 17:56:25;;;;;;;10.63;5.13;;;;;;;20.69;75.93;101066.00;8334980;28;20040;-61
2023/10/09 18:00:26;;;;;;;10.13;5.55;;;;;;;20.64;76.08;101068.47;8327876;28;20340;-61
2023/10/09 18:04:26;;;;;;;10.07;5.18;;;;;;;20.68;75.32;101075.31;8328361;28;20037;-62
2023/10/09 18:08:28;;;;;;;13.55;5.40;;;;;;;20.62;75.72;101076.06;8335760;28;20045;-64
2023/10/09 18:12:29;;;;;;;12.73;5.50;;;;;;;20.46;75.78;101082.63;8332109;28;20036;-64
2023/10/09 18:16:30;;;;;;;12.00;5.18;;;;;;;20.57;74.71;101084.03;8338061;28;20044;-59
2023/10/09 18:20:30;;;;;;;13.35;4.90;;;;;;;20.64;74.52;101079.47;8335695;28;20094;-60
2023/10/09 18:24:36;;;;;;;8.95;4.80;;;;;;;20.54;75.62;101084.41;8343188;28;20446;-60
2023/10/09 18:28:36;;;;;;;9.90;5.22;;;;;;;20.38;76.64;101079.13;8334848;28;20131;-61
2023/10/09 18:32:40;;;;;;;18.42;5.65;;;;;;;20.40;75.61;101077.06;8331288;28;20249;-61
2023/10/09 18:36:40;;;;;;;14.18;5.07;;;;;;;20.30;75.81;101081.97;8335626;28;20045;-61
2023/10/09 18:40:46;;;;;;;22.08;5.78;;;;;;;20.03;76.67;101090.84;8332384;28;20037;-61
2023/10/09 18:44:47;;;;;;;14.60;5.47;;;;;;;19.98;76.76;101090.53;8330960;28;20048;-61
2023/10/09 18:48:48;;;;;;;13.23;5.18;;;;;;;19.95;78.00;101085.41;8348156;28;20038;-62
2023/10/09 18:52:51;;;;;;;10.82;5.55;;;;;;;19.81;78.27;101089.84;8340629;28;20242;-61
2023/10/09 18:56:52;;;;;;;16.65;5.53;;;;;;;19.57;79.06;101086.47;8340080;28;20531;-61
2023/10/09 19:01:01;;;;;;;14.43;5.32;;;;;;;19.61;79.28;101080.41;8341980;28;20421;-61
2023/10/09 19:05:07;;;;;;;15.65;6.82;;;;;;;19.60;79.05;101078.72;8343404;28;20045;-60
2023/10/09 19:09:08;;;;;;;17.05;5.80;;;;;;;19.70;78.95;101081.22;8339518;28;20444;-64
2023/10/09 19:13:10;;;;;;;12.63;5.82;;;;;;;19.94;77.70;101080.97;8338563;28;20124;-63
2023/10/09 19:17:11;;;;;;;13.60;5.65;;;;;;;20.17;76.93;101076.28;8340466;28;20441;-63
2023/10/09 19:21:13;;;;;;;13.52;7.15;;;;;;;20.24;77.04;101075.34;8338521;28;20407;-62
2023/10/09 19:25:16;;;;;;;17.58;6.38;;;;;;;20.31;77.01;101075.44;8336839;28;20372;-63
2023/10/09 19:29:16;;;;;;;15.60;6.43;;;;;;;20.32;76.82;101079.88;8338458;28;20399;-62
2023/10/09 19:33:17;;;;;;;15.32;7.18;;;;;;;20.29;77.23;101080.25;8334426;28;20042;-62
2023/10/09 19:37:19;;;;;;;17.20;6.90;;;;;;;20.28;77.49;101078.56;8340974;28;20055;-62
2023/10/09 19:41:22;;;;;;;15.85;6.45;;;;;;;20.23;78.08;101081.03;8338890;28;20761;-62